Time;durP1;ratioP1;P1;durP2;ratioP2;P2;SDS_P1;SDS_P2;PMS_P1;PMS_P2;Temp;Humidity;BMP_temperature;BMP_pressure;BME280_temperature;BME280_humidity;BME280_pressure;Samples;Min_cycle;Max_cycle;Signal;HPM_P1;HPM_P2
2024/03/03 00:01:43;;;;;;;28.13;18.17;;;13.00;99.90;;;;;;5024814;28;20702;-67
2024/03/03 00:04:10;;;;;;;26.30;18.23;;;12.90;99.90;;;;;;5020444;28;20196;-67
2024/03/03 00:06:37;;;;;;;25.73;20.10;;;12.90;99.90;;;;;;5018818;28;20188;-67
2024/03/03 00:09:05;;;;;;;26.87;19.30;;;12.90;99.90;;;;;;5020300;28;20946;-68
2024/03/03 00:11:31;;;;;;;26.00;18.53;;;12.80;99.90;;;;;;5022819;28;20435;-68
2024/03/03 00:13:57;;;;;;;24.67;19.47;;;12.80;99.90;;;;;;5020294;28;20443;-67
2024/03/03 00:16:22;;;;;;;27.00;19.30;;;12.70;99.90;;;;;;5019172;28;20995;-68
2024/03/03 00:18:48;;;;;;;26.20;17.93;;;12.70;99.90;;;;;;5021394;28;20188;-68
2024/03/03 00:21:14;;;;;;;26.33;19.27;;;12.60;99.90;;;;;;5021470;28;20176;-67
2024/03/03 00:23:40;;;;;;;27.67;19.43;;;12.60;99.90;;;;;;5019327;28;20208;-67
2024/03/03 00:26:06;;;;;;;27.17;19.07;;;12.60;99.90;;;;;;5017552;28;20969;-67
2024/03/03 00:28:32;;;;;;;26.30;18.80;;;12.60;99.90;;;;;;5022280;28;20465;-67
2024/03/03 00:30:58;;;;;;;27.10;19.77;;;12.50;99.90;;;;;;5017396;28;20273;-67
2024/03/03 00:33:23;;;;;;;30.23;20.00;;;12.50;99.90;;;;;;5025472;28;20192;-67
2024/03/03 00:35:49;;;;;;;29.33;18.63;;;12.50;99.90;;;;;;5020753;28;20211;-67
2024/03/03 00:38:15;;;;;;;34.03;20.70;;;12.50;99.90;;;;;;5026653;28;20239;-67
2024/03/03 00:40:40;;;;;;;26.30;19.90;;;12.50;99.90;;;;;;5019696;28;20922;-68
2024/03/03 00:43:06;;;;;;;26.17;19.30;;;12.40;99.90;;;;;;5021428;28;20212;-67
2024/03/03 00:45:33;;;;;;;28.00;19.57;;;12.50;99.90;;;;;;5022935;28;20265;-67
2024/03/03 00:47:59;;;;;;;27.43;18.90;;;12.40;99.90;;;;;;5015858;28;20181;-68
2024/03/03 00:50:24;;;;;;;28.63;20.30;;;12.40;99.90;;;;;;5030320;28;20550;-67
2024/03/03 00:52:54;;;;;;;26.90;19.00;;;12.40;99.90;;;;;;5024572;28;20188;-67
2024/03/03 00:55:20;;;;;;;24.67;18.37;;;12.40;99.90;;;;;;5022826;28;20231;-67
2024/03/03 00:57:46;;;;;;;27.37;21.33;;;12.40;99.90;;;;;;5023340;28;20450;-67
2024/03/03 01:00:12;;;;;;;26.10;18.93;;;12.40;99.90;;;;;;5025240;28;20796;-67
2024/03/03 01:02:37;;;;;;;26.00;19.97;;;12.40;99.90;;;;;;5024696;28;20892;-67
2024/03/03 01:05:03;;;;;;;28.77;21.50;;;12.40;99.90;;;;;;5021730;28;20193;-67
2024/03/03 01:07:29;;;;;;;31.60;21.57;;;12.40;99.90;;;;;;5031120;28;20229;-67
2024/03/03 01:09:54;;;;;;;29.33;21.77;;;12.40;99.90;;;;;;5026317;28;20466;-67
2024/03/03 01:12:20;;;;;;;29.10;20.83;;;12.40;99.90;;;;;;5022054;28;20195;-67
2024/03/03 01:14:45;;;;;;;29.73;20.40;;;12.40;99.90;;;;;;5028056;28;20846;-67
2024/03/03 01:17:11;;;;;;;26.90;20.77;;;12.40;99.90;;;;;;5021960;28;20747;-67
2024/03/03 01:19:37;;;;;;;27.77;19.53;;;12.40;99.90;;;;;;5026953;28;20203;-67
2024/03/03 01:22:03;;;;;;;28.30;20.20;;;12.40;99.90;;;;;;5021954;28;20826;-67
2024/03/03 01:24:28;;;;;;;25.57;19.50;;;12.40;99.90;;;;;;5026537;28;20204;-68
2024/03/03 01:26:54;;;;;;;27.13;20.27;;;12.30;99.90;;;;;;5029361;28;20171;-67
2024/03/03 01:29:19;;;;;;;26.37;19.53;;;12.30;99.90;;;;;;5024651;28;20184;-67
2024/03/03 01:31:45;;;;;;;26.73;19.80;;;12.30;99.90;;;;;;5020481;28;20212;-67
2024/03/03 01:34:11;;;;;;;28.73;20.77;;;12.30;99.90;;;;;;5026426;28;20196;-68
2024/03/03 01:36:36;;;;;;;29.73;21.20;;;12.30;99.90;;;;;;5024662;28;20781;-68
2024/03/03 01:39:02;;;;;;;31.83;21.20;;;12.30;99.90;;;;;;5025155;28;20192;-67
2024/03/03 01:41:27;;;;;;;29.30;20.70;;;12.30;99.90;;;;;;5021716;28;20181;-67
2024/03/03 01:43:53;;;;;;;30.33;21.33;;;12.30;99.90;;;;;;5022974;28;20283;-67
2024/03/03 01:46:19;;;;;;;31.53;22.07;;;12.20;99.90;;;;;;5029171;28;20204;-67
2024/03/03 01:48:46;;;;;;;39.07;21.50;;;12.20;99.90;;;;;;5024264;28;20181;-67
2024/03/03 01:51:13;;;;;;;29.43;21.47;;;12.20;99.90;;;;;;5021930;28;20431;-68
2024/03/03 01:53:41;;;;;;;29.70;20.40;;;12.20;99.90;;;;;;5026579;28;20407;-68
2024/03/03 01:56:07;;;;;;;28.17;21.30;;;12.20;99.90;;;;;;5024338;28;20428;-67
2024/03/03 01:58:33;;;;;;;36.53;23.00;;;12.20;99.90;;;;;;5024960;28;20457;-67
2024/03/03 02:01:01;;;;;;;39.03;21.27;;;12.20;99.90;;;;;;5020071;28;20413;-67
2024/03/03 02:03:28;;;;;;;32.63;22.00;;;12.10;99.90;;;;;;5023332;28;20490;-68
2024/03/03 02:05:54;;;;;;;31.17;21.33;;;12.20;99.90;;;;;;5037792;28;20419;-67
2024/03/03 02:08:19;;;;;;;29.70;21.23;;;12.10;99.90;;;;;;5024287;28;20762;-67
2024/03/03 02:10:46;;;;;;;30.50;22.07;;;12.10;99.90;;;;;;5020930;28;20435;-67
2024/03/03 02:13:12;;;;;;;32.23;20.33;;;12.10;99.90;;;;;;5022083;28;20185;-67
2024/03/03 02:15:37;;;;;;;34.47;23.17;;;12.10;99.90;;;;;;5027969;28;20933;-67
2024/03/03 02:18:03;;;;;;;32.70;22.80;;;12.10;99.90;;;;;;5022323;28;20438;-68
2024/03/03 02:20:29;;;;;;;32.87;21.60;;;12.00;99.90;;;;;;5025706;28;20219;-68
2024/03/03 02:22:54;;;;;;;33.27;21.87;;;12.00;99.90;;;;;;5024474;28;20269;-67
2024/03/03 02:25:21;;;;;;;29.87;21.47;;;12.00;99.90;;;;;;5020675;28;20704;-67
2024/03/03 02:27:47;;;;;;;31.00;21.80;;;12.00;99.90;;;;;;5027956;28;20183;-67
2024/03/03 02:30:12;;;;;;;31.33;22.53;;;12.00;99.90;;;;;;5022883;28;20465;-67
2024/03/03 02:32:38;;;;;;;34.80;20.80;;;11.90;99.90;;;;;;5021614;28;20438;-68
2024/03/03 02:35:04;;;;;;;32.70;22.30;;;11.90;99.90;;;;;;5029497;28;20214;-67
2024/03/03 02:37:29;;;;;;;33.13;21.80;;;11.90;99.90;;;;;;5030220;28;20276;-67
2024/03/03 02:39:55;;;;;;;42.80;22.67;;;11.90;99.90;;;;;;5023231;28;20184;-67
2024/03/03 02:42:20;;;;;;;31.73;22.70;;;11.80;99.90;;;;;;5023384;28;20652;-67
2024/03/03 02:44:46;;;;;;;35.60;22.73;;;11.80;99.90;;;;;;5018555;28;20227;-67
2024/03/03 02:47:12;;;;;;;32.87;22.90;;;11.80;99.90;;;;;;5022634;28;20532;-67
2024/03/03 02:49:37;;;;;;;34.33;23.40;;;11.80;99.90;;;;;;5021846;28;20516;-67
2024/03/03 02:52:03;;;;;;;31.93;22.37;;;11.80;99.90;;;;;;5019891;28;20192;-67
2024/03/03 02:54:29;;;;;;;32.47;21.70;;;11.80;99.90;;;;;;5022335;28;20200;-67
2024/03/03 02:56:54;;;;;;;35.37;22.90;;;11.80;99.90;;;;;;5023296;28;20251;-67
2024/03/03 02:59:20;;;;;;;34.93;21.60;;;11.80;99.90;;;;;;5025875;28;20188;-67
2024/03/03 03:01:45;;;;;;;30.63;21.73;;;11.70;99.90;;;;;;5025062;28;20189;-67
2024/03/03 03:04:11;;;;;;;30.77;19.27;;;11.70;99.90;;;;;;5020488;28;20231;-67
2024/03/03 03:06:36;;;;;;;27.50;19.40;;;11.70;99.90;;;;;;5022966;28;20180;-67
2024/03/03 03:09:04;;;;;;;32.90;21.20;;;11.60;99.90;;;;;;5019882;28;20177;-67
2024/03/03 03:11:29;;;;;;;29.10;20.43;;;11.60;99.90;;;;;;5021133;28;20188;-67
2024/03/03 03:13:55;;;;;;;29.47;20.57;;;11.50;99.90;;;;;;5016728;28;20538;-67
2024/03/03 03:16:21;;;;;;;28.50;20.73;;;11.50;99.90;;;;;;5022275;28;20234;-67
2024/03/03 03:18:46;;;;;;;29.90;20.10;;;11.50;99.90;;;;;;5017907;28;20528;-67
2024/03/03 03:21:12;;;;;;;27.23;20.47;;;11.40;99.90;;;;;;5025627;28;20180;-68
2024/03/03 03:23:37;;;;;;;30.90;21.53;;;11.40;99.90;;;;;;5024890;28;20691;-67
2024/03/03 03:26:03;;;;;;;27.57;20.33;;;11.40;99.90;;;;;;5025685;28;20255;-67
2024/03/03 03:28:29;;;;;;;24.83;18.50;;;11.40;99.90;;;;;;5023290;28;20562;-67
2024/03/03 03:30:54;;;;;;;28.10;19.70;;;11.30;99.90;;;;;;5019486;28;20342;-67
2024/03/03 03:33:20;;;;;;;27.60;19.03;;;11.30;99.90;;;;;;5024790;28;20176;-67
2024/03/03 03:35:45;;;;;;;32.23;20.00;;;11.30;99.90;;;;;;5029689;28;20203;-67
2024/03/03 03:38:11;;;;;;;34.63;19.50;;;11.30;99.90;;;;;;5024421;28;20195;-67
2024/03/03 03:40:37;;;;;;;29.03;17.57;;;11.20;99.90;;;;;;5024825;28;21049;-67
2024/03/03 03:43:05;;;;;;;26.17;17.43;;;11.20;99.90;;;;;;5019592;28;20208;-67
2024/03/03 03:45:32;;;;;;;29.10;18.70;;;11.20;99.90;;;;;;5010971;28;20276;-67
2024/03/03 03:47:57;;;;;;;26.60;19.47;;;11.20;99.90;;;;;;5019559;28;20412;-67
2024/03/03 03:50:23;;;;;;;28.27;19.00;;;11.20;99.90;;;;;;5022574;28;20588;-67
2024/03/03 03:52:49;;;;;;;27.43;19.33;;;11.20;99.90;;;;;;5020990;28;20778;-67
2024/03/03 03:55:14;;;;;;;27.00;19.07;;;11.10;99.90;;;;;;5021100;28;20200;-67
2024/03/03 03:57:40;;;;;;;26.10;18.77;;;11.10;99.90;;;;;;5022361;28;20428;-67
2024/03/03 04:00:06;;;;;;;28.20;19.00;;;11.00;99.90;;;;;;5021749;28;20670;-67
2024/03/03 04:02:32;;;;;;;29.83;19.37;;;11.00;99.90;;;;;;5016926;28;20295;-67
2024/03/03 04:04:58;;;;;;;28.40;19.50;;;11.00;99.90;;;;;;5024675;28;21008;-69
2024/03/03 04:07:23;;;;;;;27.00;18.27;;;11.00;99.90;;;;;;5019180;28;20207;-67
2024/03/03 04:09:49;;;;;;;28.90;18.70;;;11.00;99.90;;;;;;5024505;28;20992;-67
2024/03/03 04:12:15;;;;;;;29.60;20.33;;;10.90;99.90;;;;;;5023410;28;20181;-67
2024/03/03 04:14:40;;;;;;;29.50;18.40;;;10.90;99.90;;;;;;5021638;28;20197;-67
2024/03/03 04:17:06;;;;;;;28.77;18.50;;;10.90;99.90;;;;;;5020693;28;20184;-67
2024/03/03 04:19:32;;;;;;;28.47;18.23;;;10.90;99.90;;;;;;5020677;28;20188;-67
2024/03/03 04:21:57;;;;;;;30.50;20.07;;;10.80;99.90;;;;;;5021079;28;20669;-68
2024/03/03 04:24:23;;;;;;;26.50;19.10;;;10.80;99.90;;;;;;5028708;28;20196;-68
2024/03/03 04:26:48;;;;;;;26.70;18.30;;;10.80;99.90;;;;;;5023151;28;20642;-67
2024/03/03 04:29:14;;;;;;;27.67;19.57;;;10.80;99.90;;;;;;5020960;28;20180;-67
2024/03/03 04:31:43;;;;;;;31.50;19.53;;;10.70;99.90;;;;;;5022441;28;20655;-67
2024/03/03 04:34:10;;;;;;;28.17;18.30;;;10.70;99.90;;;;;;5026364;28;20210;-67
2024/03/03 04:36:36;;;;;;;25.90;18.43;;;10.70;99.90;;;;;;5029116;28;20517;-67
2024/03/03 04:39:01;;;;;;;28.27;19.27;;;10.70;99.90;;;;;;5025611;28;20437;-68
2024/03/03 04:41:28;;;;;;;28.00;19.17;;;10.60;99.90;;;;;;5023052;28;20901;-67
2024/03/03 04:43:54;;;;;;;30.47;19.70;;;10.60;99.90;;;;;;5027548;28;20467;-67
2024/03/03 04:46:20;;;;;;;27.43;19.07;;;10.60;99.90;;;;;;5023027;28;21133;-67
2024/03/03 04:48:45;;;;;;;28.00;18.77;;;10.60;99.90;;;;;;5027524;28;20659;-68
2024/03/03 04:51:11;;;;;;;32.47;19.53;;;10.50;99.90;;;;;;5028687;28;20203;-67
2024/03/03 04:53:36;;;;;;;35.93;19.60;;;10.50;99.90;;;;;;5023982;28;20267;-67
2024/03/03 04:56:03;;;;;;;27.87;20.73;;;10.50;99.90;;;;;;5022804;28;20192;-67
2024/03/03 04:58:29;;;;;;;28.50;19.57;;;10.50;99.90;;;;;;5021466;28;20184;-67
2024/03/03 05:00:55;;;;;;;29.50;20.87;;;10.50;99.90;;;;;;5022954;28;20422;-67
2024/03/03 05:03:22;;;;;;;29.73;20.30;;;10.50;99.90;;;;;;5028108;28;20291;-67
2024/03/03 05:05:47;;;;;;;28.97;20.20;;;10.50;99.90;;;;;;5026048;28;21921;-67
2024/03/03 05:08:13;;;;;;;27.73;19.63;;;10.50;99.90;;;;;;5026506;28;20428;-67
2024/03/03 05:10:38;;;;;;;32.23;20.53;;;10.50;99.90;;;;;;5026765;28;20188;-67
2024/03/03 05:13:04;;;;;;;29.53;21.33;;;10.40;99.90;;;;;;5025664;28;20230;-67
2024/03/03 05:15:31;;;;;;;26.77;19.70;;;10.40;99.90;;;;;;5021875;28;20204;-67
2024/03/03 05:17:57;;;;;;;28.00;19.20;;;10.40;99.90;;;;;;5024293;28;20663;-67
2024/03/03 05:20:22;;;;;;;31.10;21.23;;;10.40;99.90;;;;;;5022753;28;20422;-67
2024/03/03 05:22:48;;;;;;;27.07;19.07;;;10.40;99.90;;;;;;5028459;28;20292;-67
2024/03/03 05:25:13;;;;;;;28.83;20.10;;;10.30;99.90;;;;;;5020383;28;20205;-67
2024/03/03 05:27:39;;;;;;;27.53;19.70;;;10.30;99.90;;;;;;5025128;28;20571;-67
2024/03/03 05:30:05;;;;;;;29.07;19.30;;;10.30;99.90;;;;;;5030227;28;20523;-68
2024/03/03 05:32:31;;;;;;;29.50;19.97;;;10.30;99.90;;;;;;5026005;28;20200;-67
2024/03/03 05:34:56;;;;;;;31.63;18.70;;;10.30;99.90;;;;;;5023586;28;20447;-67
2024/03/03 05:37:22;;;;;;;27.00;19.77;;;10.30;99.90;;;;;;5027122;28;20193;-67
2024/03/03 05:39:48;;;;;;;27.80;19.60;;;10.20;99.90;;;;;;5025848;28;20883;-67
2024/03/03 05:42:13;;;;;;;30.17;19.30;;;10.20;99.90;;;;;;5027795;28;20671;-67
2024/03/03 05:44:39;;;;;;;27.83;18.80;;;10.20;99.90;;;;;;5028485;28;20200;-67
2024/03/03 05:47:05;;;;;;;28.83;19.13;;;10.20;99.90;;;;;;5028260;28;20221;-67
2024/03/03 05:49:31;;;;;;;33.50;21.23;;;10.20;99.90;;;;;;5023402;28;20603;-67
2024/03/03 05:51:57;;;;;;;27.27;19.40;;;10.20;99.90;;;;;;5025398;28;20416;-67
2024/03/03 05:54:23;;;;;;;30.60;20.10;;;10.20;99.90;;;;;;5022492;28;20479;-67
2024/03/03 05:56:49;;;;;;;27.07;19.97;;;10.20;99.90;;;;;;5022187;28;20857;-67
2024/03/03 05:59:14;;;;;;;29.00;19.93;;;10.20;99.90;;;;;;5025686;28;20627;-67
2024/03/03 06:01:47;;;;;;;28.10;18.67;;;10.20;99.90;;;;;;5023205;28;20403;-67
2024/03/03 06:04:14;;;;;;;31.03;20.27;;;10.20;99.90;;;;;;5023058;28;20287;-67
2024/03/03 06:06:40;;;;;;;34.17;20.20;;;10.20;99.90;;;;;;5027584;28;20419;-67
2024/03/03 06:09:08;;;;;;;27.67;19.40;;;10.20;99.90;;;;;;5031805;28;20418;-67
2024/03/03 06:11:34;;;;;;;28.43;19.20;;;10.10;99.90;;;;;;5024750;28;20176;-67
2024/03/03 06:13:59;;;;;;;28.47;19.50;;;10.20;99.90;;;;;;5024050;28;21006;-67
2024/03/03 06:16:25;;;;;;;29.10;19.70;;;10.20;99.90;;;;;;5022189;28;20200;-68
2024/03/03 06:18:51;;;;;;;29.67;20.10;;;10.20;99.90;;;;;;5025059;28;20551;-67
2024/03/03 06:21:16;;;;;;;30.77;21.40;;;10.20;99.90;;;;;;5021937;28;20898;-67
2024/03/03 06:23:42;;;;;;;30.97;21.13;;;10.10;99.90;;;;;;5020551;28;20596;-67
2024/03/03 06:26:07;;;;;;;31.97;22.43;;;10.10;99.90;;;;;;5026455;28;20259;-67
2024/03/03 06:28:33;;;;;;;29.87;19.83;;;10.10;99.90;;;;;;5022926;28;20169;-67
2024/03/03 06:31:01;;;;;;;28.30;20.00;;;10.10;99.90;;;;;;5023526;28;20180;-67
2024/03/03 06:33:27;;;;;;;29.70;20.17;;;10.10;99.90;;;;;;5025323;28;20199;-67
2024/03/03 06:35:53;;;;;;;32.20;20.77;;;10.10;99.90;;;;;;5027130;28;21047;-67
2024/03/03 06:38:18;;;;;;;31.43;19.07;;;10.10;99.90;;;;;;5028272;28;20517;-67
2024/03/03 06:40:44;;;;;;;31.40;19.37;;;10.20;99.90;;;;;;5023600;28;20190;-67
2024/03/03 06:43:09;;;;;;;30.40;21.23;;;10.20;99.90;;;;;;5022966;28;20361;-68
2024/03/03 06:45:35;;;;;;;31.23;19.40;;;10.20;99.90;;;;;;5021939;28;21059;-67
2024/03/03 06:48:00;;;;;;;32.77;20.23;;;10.20;99.90;;;;;;5024079;28;20251;-67
2024/03/03 06:50:26;;;;;;;35.73;20.77;;;10.20;99.90;;;;;;5026662;28;20259;-67
2024/03/03 06:52:51;;;;;;;32.67;20.07;;;10.20;99.90;;;;;;5014470;28;20260;-68
2024/03/03 06:55:17;;;;;;;32.77;22.63;;;10.20;99.90;;;;;;5024910;28;20200;-67
2024/03/03 06:57:45;;;;;;;32.87;20.87;;;10.20;99.90;;;;;;5022416;28;20635;-67
2024/03/03 07:00:11;;;;;;;32.80;20.50;;;10.20;99.90;;;;;;5027661;28;20183;-67
2024/03/03 07:05:21;;;;;;;25.20;18.37;;;10.30;99.90;;;;;;5023202;28;20847;-67
2024/03/03 07:07:47;;;;;;;28.03;19.60;;;10.30;99.90;;;;;;5026611;28;20741;-67
2024/03/03 07:10:12;;;;;;;30.80;20.77;;;10.30;99.90;;;;;;5017931;28;20757;-67
2024/03/03 07:12:38;;;;;;;30.40;20.73;;;10.30;99.90;;;;;;5023751;28;20195;-67
2024/03/03 07:15:04;;;;;;;28.63;19.43;;;10.40;99.90;;;;;;5023270;28;20197;-67
2024/03/03 07:17:29;;;;;;;27.20;19.57;;;10.40;99.90;;;;;;5027033;28;20232;-67
2024/03/03 07:19:55;;;;;;;35.33;19.70;;;10.40;99.90;;;;;;5023474;28;21147;-67
2024/03/03 07:22:20;;;;;;;27.00;20.50;;;10.40;99.90;;;;;;5023438;28;20195;-67
2024/03/03 07:24:46;;;;;;;32.03;19.70;;;10.40;99.90;;;;;;5026298;28;20666;-67
2024/03/03 07:27:11;;;;;;;30.93;19.73;;;10.50;99.90;;;;;;5028423;28;20183;-67
2024/03/03 07:29:37;;;;;;;26.60;18.67;;;10.50;99.90;;;;;;5024208;28;20192;-67
2024/03/03 07:32:02;;;;;;;26.87;19.50;;;10.50;99.90;;;;;;5025405;28;20191;-67
2024/03/03 07:34:29;;;;;;;27.13;19.83;;;10.60;99.90;;;;;;5023941;28;20206;-67
2024/03/03 07:36:54;;;;;;;31.90;19.87;;;10.60;99.90;;;;;;5023246;28;20198;-67
2024/03/03 07:39:20;;;;;;;27.80;18.67;;;10.60;99.90;;;;;;5020639;28;20450;-67
2024/03/03 07:41:45;;;;;;;26.57;19.87;;;10.70;99.90;;;;;;5023931;28;20188;-67
2024/03/03 07:44:11;;;;;;;27.80;20.30;;;10.70;99.90;;;;;;5017993;28;20207;-67
2024/03/03 07:46:37;;;;;;;26.70;19.23;;;10.70;99.90;;;;;;5019581;28;20198;-67
2024/03/03 07:49:03;;;;;;;36.93;21.27;;;10.80;99.90;;;;;;5019825;28;20184;-67
2024/03/03 07:51:28;;;;;;;31.70;20.03;;;10.80;99.90;;;;;;5017723;28;20203;-67
2024/03/03 07:53:54;;;;;;;27.47;18.43;;;10.90;99.90;;;;;;5017096;28;20443;-67
2024/03/03 07:56:20;;;;;;;24.27;17.57;;;10.90;99.90;;;;;;5024242;28;20199;-67
2024/03/03 07:58:46;;;;;;;29.23;21.90;;;10.90;99.90;;;;;;5018413;28;20191;-67
2024/03/03 08:01:11;;;;;;;28.77;19.60;;;10.90;99.90;;;;;;5020511;28;20415;-67
2024/03/03 08:03:37;;;;;;;23.53;17.60;;;10.90;99.90;;;;;;5019424;28;20197;-67
2024/03/03 08:06:03;;;;;;;29.50;19.90;;;11.00;99.90;;;;;;5017944;28;20191;-68
2024/03/03 08:08:28;;;;;;;26.50;19.40;;;11.00;99.90;;;;;;5019902;28;20191;-67
2024/03/03 08:10:54;;;;;;;27.10;19.10;;;11.00;99.90;;;;;;5017308;28;20181;-67
2024/03/03 08:13:19;;;;;;;31.17;20.00;;;11.10;99.90;;;;;;5017032;28;20192;-68
2024/03/03 08:15:45;;;;;;;25.80;19.67;;;11.10;99.90;;;;;;5018340;28;20254;-68
2024/03/03 08:18:10;;;;;;;29.43;19.87;;;11.20;99.90;;;;;;5019049;28;20807;-68
2024/03/03 08:20:36;;;;;;;25.87;18.60;;;11.30;99.90;;;;;;5016478;28;20181;-68
2024/03/03 08:23:01;;;;;;;34.00;23.03;;;11.30;99.90;;;;;;5016609;28;20208;-67
2024/03/03 08:25:27;;;;;;;36.40;26.43;;;11.30;99.90;;;;;;5020863;28;20201;-67
2024/03/03 08:28:01;;;;;;;33.20;22.17;;;11.30;99.90;;;;;;5018824;28;20572;-67
2024/03/03 08:30:27;;;;;;;35.73;22.60;;;11.40;99.90;;;;;;5017996;28;20291;-68
2024/03/03 08:32:52;;;;;;;33.67;20.23;;;11.40;99.90;;;;;;5013545;28;21104;-67
2024/03/03 08:35:18;;;;;;;30.20;20.53;;;11.40;99.90;;;;;;5021949;28;20206;-67
2024/03/03 08:37:45;;;;;;;30.83;21.40;;;11.40;99.90;;;;;;5025852;28;20230;-66
2024/03/03 08:40:11;;;;;;;33.27;23.17;;;11.40;99.90;;;;;;5016551;28;20614;-66
2024/03/03 08:42:37;;;;;;;30.80;19.63;;;11.50;99.90;;;;;;5020961;28;20513;-66
2024/03/03 08:45:04;;;;;;;25.30;19.00;;;11.50;99.90;;;;;;5014318;28;20194;-66
2024/03/03 08:47:31;;;;;;;26.90;20.27;;;11.50;99.90;;;;;;5012968;28;20189;-67
2024/03/03 08:49:58;;;;;;;27.57;21.03;;;11.50;99.90;;;;;;5021429;28;20454;-68
2024/03/03 08:52:23;;;;;;;31.17;20.40;;;11.60;99.90;;;;;;5017936;28;20428;-68
2024/03/03 08:54:49;;;;;;;26.43;19.03;;;11.60;99.90;;;;;;5022983;28;20530;-68
2024/03/03 08:57:14;;;;;;;26.87;19.83;;;11.70;99.90;;;;;;5020031;28;20267;-68
2024/03/03 08:59:40;;;;;;;27.37;19.80;;;11.70;99.90;;;;;;5022741;28;20185;-68
2024/03/03 09:02:06;;;;;;;29.60;20.60;;;11.70;99.90;;;;;;5023042;28;21167;-68
2024/03/03 09:04:37;;;;;;;26.87;19.30;;;11.70;99.90;;;;;;5023169;28;20734;-68
2024/03/03 09:07:07;;;;;;;28.77;20.83;;;11.70;99.90;;;;;;5010951;28;20169;-68
2024/03/03 09:09:34;;;;;;;29.00;19.63;;;11.70;99.90;;;;;;5021597;28;20416;-68
2024/03/03 09:12:00;;;;;;;34.23;23.57;;;11.70;99.90;;;;;;5020601;28;20439;-67
2024/03/03 09:14:25;;;;;;;29.00;20.37;;;11.70;99.90;;;;;;5023982;28;20995;-67
2024/03/03 09:16:51;;;;;;;30.60;21.97;;;11.80;99.90;;;;;;5024833;28;20189;-67
2024/03/03 09:19:17;;;;;;;29.17;20.70;;;11.80;99.90;;;;;;5030351;28;20214;-68
2024/03/03 09:21:42;;;;;;;29.00;20.97;;;11.80;99.90;;;;;;5020582;28;20196;-67
2024/03/03 09:24:08;;;;;;;26.10;20.30;;;11.90;99.90;;;;;;5027415;28;20644;-67
2024/03/03 09:26:34;;;;;;;30.93;20.23;;;12.00;99.90;;;;;;5017236;28;20496;-68
2024/03/03 09:28:59;;;;;;;33.10;21.30;;;12.20;99.90;;;;;;5016315;28;20217;-68
2024/03/03 09:31:25;;;;;;;32.43;20.47;;;12.20;99.90;;;;;;5024191;28;20188;-68
2024/03/03 09:33:51;;;;;;;30.37;20.50;;;12.30;99.90;;;;;;5020877;28;20655;-67
2024/03/03 09:36:16;;;;;;;30.90;21.03;;;12.40;99.90;;;;;;5024612;28;20730;-68
2024/03/03 09:38:42;;;;;;;28.57;19.70;;;12.40;99.90;;;;;;5018744;28;20420;-67
2024/03/03 09:41:08;;;;;;;30.33;21.00;;;12.40;99.90;;;;;;5027498;28;20538;-67
2024/03/03 09:43:39;;;;;;;31.00;21.20;;;12.50;99.90;;;;;;5019674;28;20565;-67
2024/03/03 09:46:04;;;;;;;27.87;19.33;;;12.60;99.90;;;;;;5012732;28;20663;-69
2024/03/03 09:48:33;;;;;;;29.53;19.80;;;12.70;99.90;;;;;;5020374;28;20439;-68
2024/03/03 09:50:59;;;;;;;32.43;20.93;;;12.70;99.90;;;;;;5021411;28;20450;-68
2024/03/03 09:53:26;;;;;;;28.20;19.83;;;12.80;99.90;;;;;;5021790;28;20432;-67
2024/03/03 09:55:55;;;;;;;29.50;19.70;;;12.90;99.90;;;;;;5018881;28;20890;-67
2024/03/03 09:58:21;;;;;;;28.20;19.80;;;12.90;99.90;;;;;;5020716;28;20510;-67
2024/03/03 10:00:46;;;;;;;27.13;20.60;;;13.00;99.90;;;;;;5025129;28;20519;-67
2024/03/03 10:03:13;;;;;;;26.70;19.70;;;13.10;99.90;;;;;;5023279;28;20215;-68
2024/03/03 10:05:40;;;;;;;27.07;19.43;;;13.20;99.90;;;;;;5025576;28;20236;-67
2024/03/03 10:08:10;;;;;;;25.97;18.00;;;13.30;99.90;;;;;;5025063;28;20897;-68
2024/03/03 10:10:42;;;;;;;29.57;20.53;;;13.30;99.90;;;;;;5020105;28;20435;-68
2024/03/03 10:13:11;;;;;;;25.80;18.37;;;13.40;99.90;;;;;;5023268;28;20901;-68
2024/03/03 10:15:38;;;;;;;26.03;19.57;;;13.50;99.90;;;;;;5017215;28;20881;-68
2024/03/03 10:18:07;;;;;;;30.87;21.30;;;13.60;99.90;;;;;;5023788;28;20439;-68
2024/03/03 10:20:34;;;;;;;29.67;20.80;;;13.70;99.90;;;;;;5016164;28;20435;-68
2024/03/03 10:22:59;;;;;;;26.20;18.53;;;13.70;99.90;;;;;;5019493;28;20459;-68
2024/03/03 10:25:25;;;;;;;26.97;19.57;;;13.80;99.90;;;;;;5020996;28;21542;-68
2024/03/03 10:27:52;;;;;;;25.80;19.93;;;13.80;99.90;;;;;;5020543;28;20554;-67
2024/03/03 10:30:21;;;;;;;24.57;18.07;;;13.90;99.90;;;;;;5016549;28;20444;-68
2024/03/03 10:32:48;;;;;;;28.20;18.77;;;14.00;99.90;;;;;;5025015;28;20423;-68
2024/03/03 10:35:16;;;;;;;24.67;19.50;;;14.10;99.90;;;;;;5024933;28;20500;-68
2024/03/03 10:37:58;;;;;;;27.33;18.10;;;14.20;99.90;;;;;;5023117;28;20486;-68
2024/03/03 10:40:24;;;;;;;25.57;19.77;;;14.30;99.90;;;;;;5027459;28;20432;-68
2024/03/03 10:42:49;;;;;;;27.90;19.27;;;14.40;99.90;;;;;;5023958;28;20608;-69
2024/03/03 10:45:15;;;;;;;28.33;19.93;;;14.50;99.90;;;;;;5020787;28;20530;-68
2024/03/03 10:47:41;;;;;;;24.83;18.33;;;14.60;99.90;;;;;;5011898;28;20182;-68
2024/03/03 10:50:13;;;;;;;24.40;19.27;;;14.70;99.90;;;;;;5021624;28;20181;-68
2024/03/03 10:52:39;;;;;;;23.93;18.50;;;14.70;99.90;;;;;;5021846;28;20495;-68
2024/03/03 10:55:08;;;;;;;25.00;18.03;;;14.80;99.90;;;;;;5025663;28;21155;-68
2024/03/03 10:57:34;;;;;;;23.83;18.90;;;14.80;99.90;;;;;;5019553;28;21179;-68
2024/03/03 11:00:02;;;;;;;26.00;18.60;;;14.80;99.90;;;;;;5020044;28;20470;-68
2024/03/03 11:02:30;;;;;;;24.37;18.70;;;14.80;99.90;;;;;;5024344;28;20467;-68
2024/03/03 11:04:56;;;;;;;23.10;17.80;;;14.80;99.90;;;;;;5026504;28;20435;-68
2024/03/03 11:07:23;;;;;;;23.80;18.40;;;14.80;99.90;;;;;;5020864;28;20797;-68
2024/03/03 11:09:50;;;;;;;20.47;16.67;;;14.80;99.90;;;;;;5022232;28;20618;-68
2024/03/03 11:12:20;;;;;;;24.73;18.03;;;14.90;99.90;;;;;;5022074;28;20430;-68
2024/03/03 11:14:47;;;;;;;25.20;18.43;;;14.90;99.90;;;;;;5022986;28;20807;-68
2024/03/03 11:17:21;;;;;;;25.20;17.60;;;15.00;99.90;;;;;;5021303;28;20949;-68
2024/03/03 11:19:49;;;;;;;26.77;18.50;;;15.10;99.90;;;;;;5024870;28;20415;-68
2024/03/03 11:22:24;;;;;;;24.57;17.77;;;15.20;99.90;;;;;;5016765;28;20852;-69
2024/03/03 11:25:03;;;;;;;28.67;19.20;;;15.30;99.90;;;;;;5024828;28;20463;-68
2024/03/03 11:27:29;;;;;;;23.00;17.67;;;15.40;99.90;;;;;;5022093;28;20952;-68
2024/03/03 11:29:55;;;;;;;21.90;16.80;;;15.50;99.90;;;;;;5020931;28;20420;-68
2024/03/03 11:32:25;;;;;;;23.47;18.27;;;15.60;99.90;;;;;;5023091;28;20211;-68
2024/03/03 11:34:52;;;;;;;23.27;17.00;;;15.60;99.90;;;;;;5018405;28;20452;-68
2024/03/03 11:37:19;;;;;;;22.53;15.90;;;15.70;99.90;;;;;;5019922;28;20524;-68
2024/03/03 11:39:55;;;;;;;24.20;17.97;;;15.80;99.90;;;;;;5019454;28;20905;-68
2024/03/03 11:42:27;;;;;;;20.47;15.33;;;15.90;99.90;;;;;;5013900;28;20467;-69
2024/03/03 11:44:53;;;;;;;22.13;16.50;;;16.00;99.90;;;;;;5018366;28;20448;-68
2024/03/03 11:47:29;;;;;;;21.23;16.27;;;16.10;99.90;;;;;;5020562;28;20419;-68
2024/03/03 11:49:55;;;;;;;21.53;16.47;;;16.30;99.90;;;;;;5018342;28;20408;-68
2024/03/03 11:52:42;;;;;;;22.27;17.40;;;16.30;99.90;;;;;;5018068;28;20492;-68
2024/03/03 11:55:14;;;;;;;23.77;16.97;;;16.40;99.90;;;;;;5022333;28;20455;-69
2024/03/03 11:57:40;;;;;;;25.13;16.37;;;16.50;99.90;;;;;;5021843;28;20443;-68
2024/03/03 12:00:13;;;;;;;21.70;16.60;;;16.50;99.90;;;;;;5026550;28;20447;-69
2024/03/03 12:02:42;;;;;;;20.30;15.60;;;16.70;99.90;;;;;;5016661;28;20612;-68
2024/03/03 12:05:09;;;;;;;19.83;15.80;;;16.80;99.90;;;;;;5018295;28;20459;-69
2024/03/03 12:07:40;;;;;;;20.07;15.93;;;16.90;99.90;;;;;;5026434;28;20423;-69
2024/03/03 12:10:13;;;;;;;21.67;17.13;;;17.10;99.90;;;;;;5022661;28;20423;-69
2024/03/03 12:12:39;;;;;;;19.20;15.20;;;17.40;99.90;;;;;;5022337;28;20455;-68
2024/03/03 12:15:05;;;;;;;25.13;18.23;;;18.10;99.90;;;;;;5022229;28;20557;-68
2024/03/03 12:17:31;;;;;;;20.17;17.20;;;18.80;99.90;;;;;;5016609;28;20204;-68
2024/03/03 12:19:57;;;;;;;18.50;14.77;;;19.50;99.90;;;;;;5016677;28;20428;-68
2024/03/03 12:22:22;;;;;;;20.97;15.10;;;20.10;99.90;;;;;;5016380;28;20220;-68
2024/03/03 12:24:59;;;;;;;19.00;15.40;;;20.60;99.90;;;;;;5017723;28;20471;-69
2024/03/03 12:27:25;;;;;;;18.70;15.47;;;21.10;99.90;;;;;;5017808;28;20243;-68